Time;durP1;ratioP1;P1;durP2;ratioP2;P2;SDS_P1;SDS_P2;PMS_P1;PMS_P2;Temp;Humidity;BMP_temperature;BMP_pressure;BME280_temperature;BME280_humidity;BME280_pressure;Samples;Min_cycle;Max_cycle;Signal;HPM_P1;HPM_P2
2023/06/16 00:01:09;;;;;;;7.67;6.87;;;;;;;11.97;98.03;99549.48;1743731;81;21611;-70
2023/06/16 00:03:37;;;;;;;7.20;6.50;;;;;;;11.93;97.77;99547.95;1744126;81;21055;-67
2023/06/16 00:06:14;;;;;;;7.25;6.55;;;;;;;11.85;97.77;99544.00;1744175;82;21089;-67
2023/06/16 00:08:44;;;;;;;6.90;6.20;;;;;;;11.91;98.33;99551.14;1744926;81;21038;-70
2023/06/16 00:11:14;;;;;;;8.05;5.97;;;;;;;11.94;98.34;99552.27;1743633;81;20943;-70
2023/06/16 00:13:41;;;;;;;7.08;6.40;;;;;;;11.95;98.22;99551.33;1745120;81;21069;-69
2023/06/16 00:16:09;;;;;;;7.95;7.15;;;;;;;11.91;98.06;99556.38;1740673;82;21537;-65
2023/06/16 00:18:40;;;;;;;9.68;7.12;;;;;;;11.89;97.89;99551.67;1676996;84;21040;-65
2023/06/16 00:21:08;;;;;;;6.85;6.25;;;;;;;11.83;97.82;99547.59;1741488;81;21096;-66
2023/06/16 00:23:32;;;;;;;6.45;5.65;;;;;;;11.76;97.67;99543.18;1740738;81;20962;-67
2023/06/16 00:25:59;;;;;;;6.92;6.22;;;;;;;11.73;97.92;99545.94;1736618;81;21155;-67
2023/06/16 00:28:26;;;;;;;13.20;6.30;;;;;;;11.68;97.92;99553.22;1742780;81;21022;-64
2023/06/16 00:30:52;;;;;;;6.70;5.73;;;;;;;11.69;98.37;99556.67;1734845;81;21073;-66
2023/06/16 00:33:18;;;;;;;9.58;5.25;;;;;;;11.71;98.73;99546.50;1743769;81;21057;-66
2023/06/16 00:35:45;;;;;;;9.25;6.05;;;;;;;11.75;98.85;99548.48;1739860;81;21013;-64
2023/06/16 00:38:11;;;;;;;6.55;5.70;;;;;;;11.78;98.77;99552.23;1676013;84;20943;-65
2023/06/16 00:40:38;;;;;;;6.47;5.22;;;;;;;11.79;98.57;99551.30;1742529;82;21030;-65
2023/06/16 00:43:04;;;;;;;7.35;5.53;;;;;;;11.79;98.50;99554.78;1742648;81;21045;-66
2023/06/16 00:45:31;;;;;;;7.00;5.65;;;;;;;11.76;98.21;99554.95;1685580;84;20949;-66
2023/06/16 00:47:58;;;;;;;6.33;5.70;;;;;;;11.76;98.35;99549.72;1672176;84;21691;-65
2023/06/16 00:50:25;;;;;;;6.70;5.37;;;;;;;11.75;98.25;99550.63;1707664;82;21527;-68
2023/06/16 00:52:53;;;;;;;7.67;5.85;;;;;;;11.75;98.32;99554.55;1704776;82;22093;-65
2023/06/16 00:55:21;;;;;;;7.40;6.03;;;;;;;11.75;98.27;99545.39;1701002;82;21132;-65
2023/06/16 00:57:52;;;;;;;7.72;5.65;;;;;;;11.75;98.17;99548.01;1749519;81;21013;-65
2023/06/16 01:00:20;;;;;;;14.15;10.00;;;;;;;11.76;98.15;99545.80;1743707;81;21001;-65
2023/06/16 01:02:47;;;;;;;22.32;14.28;;;;;;;11.78;98.30;99554.84;1701523;83;21025;-70
2023/06/16 01:05:19;;;;;;;19.10;12.30;;;;;;;11.80;98.46;99553.84;1707891;82;21018;-65
2023/06/16 01:08:09;;;;;;;18.12;10.80;;;;;;;11.82;98.45;99546.76;1695821;84;21006;-70
2023/06/16 01:11:02;;;;;;;17.98;10.98;;;;;;;11.82;98.28;99544.14;1702306;82;21053;-65
2023/06/16 01:13:32;;;;;;;8.70;6.78;;;;;;;11.74;97.98;99546.34;1705221;82;21269;-65
2023/06/16 01:16:01;;;;;;;8.80;6.45;;;;;;;11.67;97.77;99547.58;1747519;81;21022;-71
2023/06/16 01:18:30;;;;;;;9.90;7.60;;;;;;;11.71;98.35;99550.43;1740638;81;21263;-71
2023/06/16 01:21:12;;;;;;;13.48;8.60;;;;;;;11.75;98.46;99548.01;1743009;81;20958;-65
2023/06/16 01:24:11;;;;;;;12.20;8.98;;;;;;;11.80;98.57;99548.61;1744735;81;21045;-65
2023/06/16 01:26:44;;;;;;;8.88;6.70;;;;;;;11.88;98.65;99555.23;1742695;81;21535;-67
2023/06/16 01:29:11;;;;;;;12.35;8.70;;;;;;;11.91;98.50;99547.22;1743495;81;21486;-69
2023/06/16 01:31:40;;;;;;;10.78;8.05;;;;;;;11.95;98.93;99548.72;1738265;81;21484;-68
2023/06/16 01:34:07;;;;;;;11.30;7.67;;;;;;;12.02;99.08;99550.08;1675860;83;21022;-70
2023/06/16 01:36:37;;;;;;;13.98;8.25;;;;;;;12.09;99.06;99546.17;1740086;81;21029;-69
2023/06/16 01:39:05;;;;;;;13.05;7.60;;;;;;;12.16;99.04;99544.07;1742009;82;21256;-70
2023/06/16 01:41:32;;;;;;;10.08;6.55;;;;;;;12.20;98.95;99538.55;1747231;81;20966;-67
2023/06/16 01:44:00;;;;;;;21.42;8.70;;;;;;;12.22;98.82;99541.94;1745285;81;21064;-66
2023/06/16 01:46:29;;;;;;;14.58;8.38;;;;;;;12.25;98.83;99546.99;1743140;82;20950;-69
2023/06/16 01:48:56;;;;;;;18.92;8.55;;;;;;;12.27;98.79;99543.83;1738822;82;20959;-64
2023/06/16 01:51:23;;;;;;;40.17;7.62;;;;;;;12.27;98.76;99542.52;1736961;81;21020;-70
2023/06/16 01:53:50;;;;;;;29.80;7.97;;;;;;;12.25;98.71;99544.37;1741109;81;20969;-67
2023/06/16 01:56:16;;;;;;;21.68;7.67;;;;;;;12.21;98.67;99537.64;1738025;81;21076;-64
2023/06/16 01:58:43;;;;;;;25.02;8.45;;;;;;;12.20;98.80;99543.79;1747992;81;20967;-65
2023/06/16 02:01:25;;;;;;;43.92;8.88;;;;;;;12.17;98.88;99543.97;1740038;81;20983;-65
2023/06/16 02:03:58;;;;;;;31.48;8.03;;;;;;;12.19;99.15;99544.73;1735705;82;21009;-69
2023/06/16 02:06:37;;;;;;;34.63;7.90;;;;;;;12.17;98.98;99538.73;1744749;81;20983;-68
2023/06/16 02:09:03;;;;;;;;;;;;;;;12.15;99.08;99535.34;1744760;81;20955;-71
2023/06/16 02:11:30;;;;;;;35.70;8.03;;;;;;;12.16;99.61;99534.44;1740115;81;20124;-69
2023/06/16 02:13:57;;;;;;;50.45;7.40;;;;;;;12.19;99.90;99521.17;1740129;81;21524;-70
2023/06/16 02:16:24;;;;;;;30.92;7.67;;;;;;;12.23;99.95;99527.91;1741684;81;21552;-70
2023/06/16 02:18:53;;;;;;;55.65;7.42;;;;;;;12.21;99.53;99527.61;1673211;84;21505;-71
2023/06/16 02:21:18;;;;;;;59.85;6.97;;;;;;;12.18;99.45;99537.79;1675197;84;21034;-64
2023/06/16 02:23:45;;;;;;;37.10;6.47;;;;;;;12.14;99.15;99528.44;1676150;84;21054;-66
2023/06/16 02:26:11;;;;;;;32.45;6.47;;;;;;;12.11;99.07;99531.23;1676736;84;21093;-65
2023/06/16 02:28:37;;;;;;;38.58;6.45;;;;;;;12.07;99.02;99529.70;1673125;84;20947;-66
2023/06/16 02:31:04;;;;;;;38.42;7.65;;;;;;;12.02;98.94;99529.14;1704378;82;21643;-70
2023/06/16 02:33:31;;;;;;;39.53;6.50;;;;;;;11.99;99.01;99521.47;1689782;83;21486;-65
2023/06/16 02:35:57;;;;;;;47.17;6.72;;;;;;;11.97;99.00;99524.62;1740914;81;21286;-71
2023/06/16 02:38:24;;;;;;;51.18;6.40;;;;;;;11.94;99.01;99520.87;1747850;81;20997;-64
2023/06/16 02:40:50;;;;;;;41.42;7.12;;;;;;;11.92;99.13;99520.11;1675265;84;21002;-69
2023/06/16 02:43:18;;;;;;;39.88;7.10;;;;;;;11.91;99.14;99523.20;1699590;83;21064;-68
2023/06/16 02:45:45;;;;;;;47.17;6.33;;;;;;;11.90;99.07;99521.96;1711018;83;21010;-65
2023/06/16 02:48:11;;;;;;;47.70;7.17;;;;;;;11.89;99.10;99517.67;1732141;82;21034;-64
2023/06/16 02:50:39;;;;;;;49.38;7.05;;;;;;;11.86;99.28;99519.52;1732852;82;21494;-71
2023/06/16 02:53:05;;;;;;;;;;;;;;;11.83;99.13;99516.20;1736300;82;20955;-69
2023/06/16 02:55:31;;;;;;;40.92;7.67;;;;;;;11.86;99.42;99516.91;1729775;82;20155;-65
2023/06/16 02:57:57;;;;;;;54.90;8.23;;;;;;;11.86;99.49;99510.83;1728916;82;21493;-70
2023/06/16 03:00:24;;;;;;;48.55;9.58;;;;;;;11.89;99.59;99508.52;1731204;82;21022;-65
2023/06/16 03:02:52;;;;;;;69.97;9.53;;;;;;;11.97;100.00;99510.23;1733645;82;21540;-67
2023/06/16 03:05:18;;;;;;;81.70;9.08;;;;;;;12.04;100.00;99506.33;1731599;82;21099;-66
2023/06/16 03:07:45;;;;;;;106.67;9.80;;;;;;;12.13;100.00;99511.06;1681764;85;20975;-71
2023/06/16 03:10:11;;;;;;;99.97;9.17;;;;;;;12.22;100.00;99507.91;1733809;82;20923;-68
2023/06/16 03:12:38;;;;;;;76.90;9.20;;;;;;;12.34;100.00;99510.28;1731015;82;21681;-69
2023/06/16 03:15:05;;;;;;;143.52;9.73;;;;;;;12.40;100.00;99499.91;1729467;82;21483;-65
2023/06/16 03:17:33;;;;;;;70.72;7.92;;;;;;;12.50;100.00;99514.17;1732915;82;21016;-69
2023/06/16 03:19:59;;;;;;;35.48;6.55;;;;;;;12.56;100.00;99511.18;1726076;82;21530;-67
2023/06/16 03:22:26;;;;;;;53.65;6.80;;;;;;;12.60;100.00;99507.44;1724342;82;21430;-67
2023/06/16 03:24:52;;;;;;;42.15;6.58;;;;;;;12.62;100.00;99521.30;1729211;82;21028;-67
2023/06/16 03:27:19;;;;;;;41.10;7.70;;;;;;;12.60;100.00;99517.91;1734143;82;21003;-67
2023/06/16 03:29:45;;;;;;;30.62;7.05;;;;;;;12.56;100.00;99521.66;1731327;82;20972;-66
2023/06/16 03:32:11;;;;;;;39.73;7.55;;;;;;;12.51;100.00;99515.84;1682083;84;20971;-66
2023/06/16 03:34:38;;;;;;;58.52;7.92;;;;;;;12.55;100.00;99514.75;1732745;82;21053;-66
2023/06/16 03:37:05;;;;;;;64.90;8.35;;;;;;;12.63;100.00;99505.97;1729472;82;20994;-65
2023/06/16 03:39:31;;;;;;;58.10;9.20;;;;;;;12.71;100.00;99512.88;1734277;82;21461;-68
2023/06/16 03:41:57;;;;;;;33.67;9.00;;;;;;;12.76;100.00;99502.98;1682414;84;21534;-66
2023/06/16 03:44:24;;;;;;;39.67;8.98;;;;;;;12.71;100.00;99484.06;1740567;81;21378;-66
2023/06/16 03:46:51;;;;;;;31.10;9.15;;;;;;;12.89;100.00;99504.41;1743865;81;21024;-65
2023/06/16 03:49:17;;;;;;;45.55;10.53;;;;;;;12.97;100.00;99509.19;1675266;84;21041;-65
2023/06/16 03:51:43;;;;;;;37.88;9.28;;;;;;;13.02;100.00;99507.59;1690042;84;21552;-65
2023/06/16 03:54:13;;;;;;;30.02;9.70;;;;;;;13.09;100.00;99513.68;1675745;84;21148;-65
2023/06/16 03:56:39;;;;;;;24.25;11.03;;;;;;;13.12;100.00;99508.25;1675664;84;21096;-65
2023/06/16 03:59:06;;;;;;;21.48;9.85;;;;;;;13.19;100.00;99508.26;1671592;84;21005;-68
2023/06/16 04:01:32;;;;;;;20.95;10.80;;;;;;;13.18;100.00;99497.37;1677180;84;21560;-70
2023/06/16 04:03:58;;;;;;;16.85;10.70;;;;;;;13.18;100.00;99497.37;1677341;84;20983;-65
2023/06/16 04:06:25;;;;;;;18.85;11.63;;;;;;;13.29;100.00;99502.47;1700451;83;21011;-71
2023/06/16 04:08:51;;;;;;;22.00;12.15;;;;;;;13.37;100.00;99502.84;1692023;83;21534;-69
2023/06/16 04:11:18;;;;;;;16.52;11.45;;;;;;;13.49;100.00;99499.44;1673449;84;21051;-70
2023/06/16 04:13:44;;;;;;;16.67;11.95;;;;;;;13.56;100.00;99511.25;1745851;81;20966;-69
2023/06/16 04:16:10;;;;;;;16.62;12.50;;;;;;;13.57;100.00;99509.45;1747057;81;21022;-70
2023/06/16 04:18:37;;;;;;;15.10;12.28;;;;;;;13.61;100.00;99511.80;1703325;83;21480;-68
2023/06/16 04:21:03;;;;;;;18.65;13.58;;;;;;;13.65;100.00;99506.72;1706667;83;20997;-64
2023/06/16 04:23:29;;;;;;;16.57;12.85;;;;;;;13.68;100.00;99510.09;1675116;84;21539;-65
2023/06/16 04:25:55;;;;;;;14.98;12.90;;;;;;;13.64;100.00;99510.30;1746163;81;21093;-70
2023/06/16 04:28:22;;;;;;;14.55;12.35;;;;;;;13.69;100.00;99511.77;1747851;81;21027;-72
2023/06/16 04:30:50;;;;;;;15.43;12.63;;;;;;;13.76;100.00;99511.77;1749945;81;21097;-70
2023/06/16 04:33:17;;;;;;;15.63;12.30;;;;;;;13.85;100.00;99509.86;1744960;81;20970;-68
2023/06/16 04:35:43;;;;;;;;;;;;;;;13.92;100.00;99516.41;1747174;82;21588;-69
2023/06/16 04:38:10;;;;;;;20.73;16.23;;;;;;;13.99;100.00;99512.43;1747563;81;20126;-70
2023/06/16 04:40:37;;;;;;;23.25;16.97;;;;;;;14.09;100.00;99506.97;1748186;81;21010;-69
2023/06/16 04:43:04;;;;;;;;;;;;;;;14.19;100.00;99508.98;1752089;81;21017;-68
2023/06/16 04:45:31;;;;;;;25.10;16.77;;;;;;;14.32;100.00;99509.87;1747392;82;20157;-69
2023/06/16 04:47:58;;;;;;;22.75;16.42;;;;;;;14.40;100.00;99511.52;1749448;81;20982;-69
2023/06/16 04:50:25;;;;;;;28.05;18.92;;;;;;;14.50;100.00;99506.00;1747208;82;20950;-70
2023/06/16 04:52:53;;;;;;;21.02;18.35;;;;;;;14.72;100.00;99510.69;1748312;81;20961;-65
2023/06/16 04:55:20;;;;;;;29.18;19.10;;;;;;;14.99;100.00;99510.60;1742849;81;21481;-66
2023/06/16 04:57:46;;;;;;;;;;;;;;;15.19;100.00;99503.13;1710880;82;21646;-69
2023/06/16 05:00:13;;;;;;;22.25;17.77;;;;;;;15.21;100.00;99507.33;1705606;82;20184;-69
2023/06/16 05:02:43;;;;;;;27.73;17.62;;;;;;;15.32;100.00;99509.21;1708520;82;22412;-69
2023/06/16 05:05:10;;;;;;;25.12;18.23;;;;;;;15.41;100.00;99505.92;1696912;83;21037;-66
2023/06/16 05:07:37;;;;;;;27.57;19.77;;;;;;;15.56;100.00;99509.25;1691939;83;21032;-69
2023/06/16 05:10:05;;;;;;;24.65;19.42;;;;;;;15.64;100.00;99496.38;1675874;84;21037;-65
2023/06/16 05:12:32;;;;;;;25.70;18.12;;;;;;;15.87;100.00;99510.55;1701637;82;21061;-69
2023/06/16 05:14:59;;;;;;;21.60;15.85;;;;;;;15.95;99.22;99515.27;1704817;82;21060;-69
2023/06/16 05:17:25;;;;;;;20.40;17.77;;;;;;;15.92;98.94;99514.66;1700532;82;21037;-66
2023/06/16 05:19:51;;;;;;;21.90;18.80;;;;;;;15.86;98.65;99519.88;1703087;82;21034;-66
2023/06/16 05:22:23;;;;;;;22.77;18.62;;;;;;;15.83;98.50;99519.63;1705471;83;21369;-72
2023/06/16 05:24:46;;;;;;;25.72;20.62;;;;;;;15.76;98.69;99521.01;1704884;83;21120;-69
2023/06/16 05:27:12;;;;;;;25.48;19.98;;;;;;;15.76;98.81;99523.64;1709889;84;21041;-66
2023/06/16 05:29:42;;;;;;;27.22;19.30;;;;;;;15.72;98.47;99519.56;1704867;82;21028;-71
2023/06/16 05:32:08;;;;;;;21.33;19.12;;;;;;;15.72;98.76;99522.20;1707574;83;21076;-69
2023/06/16 05:34:35;;;;;;;24.65;20.05;;;;;;;15.73;98.34;99521.23;1704793;83;20990;-70
2023/06/16 05:37:01;;;;;;;22.45;19.50;;;;;;;15.78;98.82;99520.43;1706893;84;21283;-66
2023/06/16 05:39:27;;;;;;;23.02;19.90;;;;;;;15.92;99.37;99522.07;1703062;83;21549;-72
2023/06/16 05:41:53;;;;;;;21.25;19.15;;;;;;;16.05;98.74;99522.03;1706482;84;21020;-71
2023/06/16 05:44:20;;;;;;;22.27;19.92;;;;;;;16.10;98.43;99519.42;1709077;82;21002;-70
2023/06/16 05:46:49;;;;;;;19.90;17.87;;;;;;;16.27;98.77;99515.55;1708609;82;21506;-70
2023/06/16 05:49:17;;;;;;;20.32;17.42;;;;;;;16.52;99.24;99513.69;1672835;84;21057;-66
2023/06/16 05:51:44;;;;;;;21.42;18.07;;;;;;;16.81;99.08;99522.56;1701545;84;21018;-66
2023/06/16 05:54:10;;;;;;;21.33;19.23;;;;;;;17.14;99.11;99521.28;1699616;83;21470;-72
2023/06/16 05:56:36;;;;;;;19.98;17.87;;;;;;;17.42;98.72;99519.09;1692320;84;21512;-70
2023/06/16 05:59:04;;;;;;;19.52;17.55;;;;;;;17.71;98.10;99526.53;1697275;83;20979;-73
2023/06/16 06:01:31;;;;;;;18.25;16.35;;;;;;;17.68;95.72;99528.92;1698340;83;21007;-73
2023/06/16 06:03:57;;;;;;;16.67;15.10;;;;;;;17.55;94.92;99530.38;1699668;83;21025;-69
2023/06/16 06:06:23;;;;;;;18.27;16.50;;;;;;;17.56;96.33;99530.75;1700086;83;21040;-73
2023/06/16 06:08:50;;;;;;;17.57;15.78;;;;;;;17.72;96.61;99533.48;1701858;84;20986;-71
2023/06/16 06:11:16;;;;;;;19.47;16.17;;;;;;;17.73;96.16;99531.18;1704364;83;20993;-69
2023/06/16 06:13:42;;;;;;;17.50;15.70;;;;;;;17.77;96.14;99526.03;1696828;84;20958;-67
2023/06/16 06:16:08;;;;;;;17.98;15.83;;;;;;;17.91;96.35;99540.31;1700243;83;21025;-67
2023/06/16 06:18:35;;;;;;;15.32;13.83;;;;;;;17.97;95.79;99533.20;1700137;83;21073;-70
2023/06/16 06:21:01;;;;;;;14.93;13.10;;;;;;;18.16;96.28;99535.69;1698924;83;21036;-71
2023/06/16 06:23:27;;;;;;;15.28;13.58;;;;;;;18.29;96.02;99539.02;1693364;83;21001;-67
2023/06/16 06:25:53;;;;;;;14.15;12.80;;;;;;;18.58;96.49;99531.78;1700936;83;21016;-66
2023/06/16 06:28:20;;;;;;;15.40;13.87;;;;;;;18.95;96.37;99533.02;1698820;83;20978;-67
2023/06/16 06:30:46;;;;;;;14.00;12.63;;;;;;;19.15;95.43;99531.80;1701053;83;21042;-69
2023/06/16 06:33:12;;;;;;;13.23;11.83;;;;;;;19.33;95.04;99526.25;1700651;83;21034;-70
2023/06/16 06:35:39;;;;;;;13.78;12.37;;;;;;;19.64;95.24;99535.50;1699130;83;21002;-68
2023/06/16 06:38:05;;;;;;;13.18;11.78;;;;;;;19.99;95.63;99530.22;1704816;84;21148;-69
2023/06/16 06:40:32;;;;;;;12.50;11.30;;;;;;;20.35;95.91;99528.22;1702538;83;21124;-68
2023/06/16 06:42:58;;;;;;;11.65;10.45;;;;;;;20.79;95.70;99531.28;1700279;83;21005;-72
2023/06/16 06:45:24;;;;;;;10.88;9.78;;;;;;;21.17;94.83;99533.98;1702467;82;20998;-74
2023/06/16 06:47:51;;;;;;;10.40;9.38;;;;;;;21.43;93.75;99530.22;1702996;82;20986;-70
2023/06/16 06:50:17;;;;;;;10.53;9.50;;;;;;;21.53;92.54;99528.34;1705931;84;21049;-68
2023/06/16 06:52:43;;;;;;;11.95;10.55;;;;;;;21.94;93.58;99531.47;1705633;83;21274;-69
2023/06/16 06:55:10;;;;;;;10.43;9.50;;;;;;;22.32;92.38;99533.05;1698581;83;21044;-66
2023/06/16 06:57:36;;;;;;;10.50;9.40;;;;;;;22.82;93.08;99531.59;1676387;84;20995;-67
2023/06/16 07:00:03;;;;;;;10.40;9.00;;;;;;;23.21;92.17;99527.21;1676247;85;21654;-72
2023/06/16 07:02:30;;;;;;;10.45;8.85;;;;;;;23.66;92.25;99528.73;1675275;84;21063;-76
2023/06/16 07:04:56;;;;;;;9.70;8.70;;;;;;;24.15;92.22;99526.23;1697588;82;21099;-68
2023/06/16 07:07:23;;;;;;;11.25;8.75;;;;;;;24.85;92.23;99528.95;1708627;82;21014;-69
2023/06/16 07:09:49;;;;;;;9.25;8.35;;;;;;;24.99;89.37;99529.08;1705107;82;20980;-67
2023/06/16 07:12:16;;;;;;;9.40;8.55;;;;;;;24.85;87.85;99526.27;1742138;81;20981;-68
2023/06/16 07:14:48;;;;;;;10.58;7.87;;;;;;;24.92;88.30;99525.40;1743182;82;21027;-66
2023/06/16 07:17:18;;;;;;;8.88;7.33;;;;;;;25.04;89.23;99531.25;1744466;81;21410;-70
2023/06/16 07:19:50;;;;;;;8.78;7.42;;;;;;;25.43;88.93;99522.45;1677143;84;21097;-70
2023/06/16 07:22:20;;;;;;;8.48;7.58;;;;;;;25.48;84.99;99530.78;1679381;84;21565;-74
2023/06/16 07:24:46;;;;;;;7.90;6.72;;;;;;;25.30;86.85;99528.87;1674690;84;21022;-65
2023/06/16 07:27:13;;;;;;;8.63;7.37;;;;;;;26.64;90.44;99526.45;1678520;85;21513;-66
2023/06/16 07:29:40;;;;;;;6.87;6.08;;;;;;;27.62;87.61;99523.55;1703776;83;21431;-65
2023/06/16 07:32:06;;;;;;;11.30;6.95;;;;;;;27.96;84.44;99526.66;1711223;82;21494;-65
2023/06/16 07:34:33;;;;;;;7.40;6.60;;;;;;;27.68;79.88;99530.02;1707399;82;20952;-68
2023/06/16 07:37:00;;;;;;;8.45;6.45;;;;;;;26.85;80.36;99526.56;1742722;82;21354;-68
2023/06/16 07:39:26;;;;;;;;;;;;;;;26.52;80.39;99528.70;1750615;81;21034;-68
2023/06/16 07:41:52;;;;;;;7.92;6.37;;;;;;;26.37;79.43;99533.98;1747128;81;20174;-68
2023/06/16 07:44:18;;;;;;;7.17;5.97;;;;;;;26.27;80.78;99530.70;1748767;81;21048;-71
2023/06/16 07:46:45;;;;;;;10.32;5.95;;;;;;;26.12;75.56;99525.30;1746700;81;21032;-70
2023/06/16 07:49:15;;;;;;;6.95;6.17;;;;;;;25.38;76.38;99530.17;1744523;81;20951;-70
2023/06/16 07:51:41;;;;;;;6.78;6.10;;;;;;;24.62;76.99;99532.78;1743628;81;21367;-69
2023/06/16 07:54:11;;;;;;;7.60;6.67;;;;;;;24.14;76.53;99529.88;1735225;81;21645;-66
2023/06/16 07:56:39;;;;;;;11.15;7.08;;;;;;;23.86;76.45;99528.85;1743024;81;21032;-71
2023/06/16 07:59:07;;;;;;;7.65;6.47;;;;;;;23.46;75.50;99534.83;1746137;80;21025;-71
2023/06/16 08:01:33;;;;;;;9.55;6.47;;;;;;;23.44;76.48;99535.47;1741865;81;21442;-67
2023/06/16 08:03:59;;;;;;;8.00;6.47;;;;;;;23.80;76.41;99532.14;1736068;81;21059;-66
2023/06/16 08:06:27;;;;;;;7.37;6.17;;;;;;;24.07;75.74;99530.22;1737922;82;20993;-66
2023/06/16 08:08:53;;;;;;;7.45;6.42;;;;;;;24.44;73.32;99534.29;1732991;82;21036;-61
2023/06/16 08:11:22;;;;;;;5.85;5.30;;;;;;;24.25;72.25;99538.07;1738365;81;20978;-61
2023/06/16 08:13:48;;;;;;;13.08;6.40;;;;;;;25.56;76.90;99531.27;1737498;81;21694;-62
2023/06/16 08:16:16;;;;;;;10.40;6.27;;;;;;;26.42;71.20;99532.12;1726310;82;21112;-62
2023/06/16 08:18:43;;;;;;;6.58;5.90;;;;;;;25.99;69.65;99536.59;1741919;81;21808;-62
2023/06/16 08:21:09;;;;;;;7.67;5.10;;;;;;;25.82;72.61;99534.97;1741915;81;21052;-62
2023/06/16 08:23:35;;;;;;;8.10;5.10;;;;;;;25.97;69.62;99531.92;1737731;81;20947;-61
2023/06/16 08:26:02;;;;;;;11.28;5.55;;;;;;;26.09;69.42;99539.03;1742728;81;21045;-62
2023/06/16 08:28:34;;;;;;;12.45;5.28;;;;;;;26.17;68.24;99539.49;1740261;82;21010;-60
2023/06/16 08:31:00;;;;;;;12.10;5.05;;;;;;;26.34;71.96;99535.69;1745451;81;21001;-60
2023/06/16 08:33:30;;;;;;;5.22;4.50;;;;;;;27.57;68.55;99531.84;1733099;81;21069;-61
2023/06/16 08:35:56;;;;;;;4.55;3.85;;;;;;;28.75;71.69;99526.07;1674800;84;21549;-60
2023/06/16 08:38:22;;;;;;;10.03;4.17;;;;;;;30.82;69.01;99523.67;1675318;84;21013;-61
2023/06/16 08:40:49;;;;;;;4.45;4.05;;;;;;;32.28;66.27;99523.13;1672398;84;21216;-62
2023/06/16 08:43:20;;;;;;;;;;;;;;;33.64;65.91;99519.30;1672635;84;21045;-62
2023/06/16 08:45:49;;;;;;;4.97;3.75;;;;;;;34.61;61.67;99519.13;1670971;84;20179;-61
2023/06/16 08:48:20;;;;;;;5.72;3.85;;;;;;;34.58;58.87;99520.14;1711172;82;21077;-60
2023/06/16 08:50:47;;;;;;;3.37;3.08;;;;;;;33.96;60.00;99515.00;1697463;82;21065;-60
2023/06/16 08:53:17;;;;;;;4.67;3.02;;;;;;;34.30;58.29;99516.18;1696064;82;21015;-60
2023/06/16 08:55:48;;;;;;;6.00;3.50;;;;;;;34.48;60.35;99512.58;1684663;82;20993;-61
2023/06/16 08:58:20;;;;;;;3.33;2.70;;;;;;;35.54;60.24;99509.80;1703155;82;21061;-61
2023/06/16 09:00:54;;;;;;;3.75;2.45;;;;;;;37.12;59.60;99503.58;1741328;81;22434;-60
2023/06/16 09:03:25;;;;;;;3.90;3.22;;;;;;;38.32;55.31;99509.01;1742422;81;21045;-59
2023/06/16 09:05:51;;;;;;;4.72;3.55;;;;;;;37.66;48.17;99503.70;1744076;81;20971;-60
2023/06/16 09:08:26;;;;;;;5.30;3.45;;;;;;;35.70;46.64;99514.50;1739883;82;21513;-60
2023/06/16 09:10:55;;;;;;;4.75;2.80;;;;;;;33.88;47.62;99512.08;1742070;81;21021;-60
2023/06/16 09:13:19;;;;;;;3.80;3.40;;;;;;;32.46;46.87;99510.77;1671750;85;21084;-59
2023/06/16 09:15:51;;;;;;;4.78;3.22;;;;;;;30.83;45.77;99509.15;1671314;84;21077;-59
2023/06/16 09:18:16;;;;;;;3.60;3.30;;;;;;;29.63;45.75;99517.03;1669704;84;21630;-59
2023/06/16 09:20:51;;;;;;;4.50;3.52;;;;;;;28.84;46.27;99516.52;1676740;84;21077;-60
2023/06/16 09:23:15;;;;;;;6.70;3.30;;;;;;;29.46;46.44;99512.97;1673342;84;21085;-58
2023/06/16 09:25:41;;;;;;;7.33;3.70;;;;;;;29.05;46.42;99516.50;1673825;83;23687;-60
2023/06/16 09:28:10;;;;;;;4.58;3.00;;;;;;;29.34;44.71;99513.24;1674572;84;21085;-61
2023/06/16 09:30:38;;;;;;;3.98;3.17;;;;;;;29.24;43.92;99509.58;1671064;84;21172;-59
2023/06/16 09:33:08;;;;;;;;;;;;;;;28.57;43.61;99509.62;1674361;84;21101;-59
2023/06/16 09:35:37;;;;;;;3.87;2.85;;;;;;;28.27;44.13;99513.75;1682750;83;20192;-61
2023/06/16 09:38:04;;;;;;;5.37;3.08;;;;;;;28.66;46.38;99503.59;1687385;84;21557;-59
2023/06/16 09:40:33;;;;;;;6.53;2.90;;;;;;;31.45;46.74;99501.55;1683649;83;21626;-59
2023/06/16 09:43:04;;;;;;;4.58;2.75;;;;;;;33.97;45.61;99493.08;1685166;83;21092;-61
2023/06/16 09:45:33;;;;;;;3.85;2.42;;;;;;;35.90;43.33;99498.29;1681206;83;21129;-61
2023/06/16 09:48:05;;;;;;;4.08;2.50;;;;;;;37.27;42.58;99493.41;1673383;84;21061;-60
2023/06/16 09:50:36;;;;;;;3.17;2.25;;;;;;;36.58;39.16;99495.98;1699146;82;21032;-60
2023/06/16 09:53:28;;;;;;;2.85;2.12;;;;;;;35.73;40.36;99489.56;1693230;82;21101;-60
2023/06/16 09:55:41;;;;;;;3.17;1.80;;;;;;;36.95;41.26;99489.98;1734678;81;20971;-59
2023/06/16 09:58:14;;;;;;;3.72;1.80;;;;;;;37.83;37.50;99503.61;1736818;81;21074;-59
2023/06/16 10:00:43;;;;;;;4.20;2.30;;;;;;;36.52;37.60;99490.97;1669765;84;21097;-60
2023/06/16 10:03:12;;;;;;;2.98;2.25;;;;;;;35.61;37.19;99501.02;1740550;81;21061;-61
2023/06/16 10:05:45;;;;;;;8.43;2.58;;;;;;;35.75;34.75;99487.44;1695331;83;21509;-60
2023/06/16 10:08:19;;;;;;;5.30;2.70;;;;;;;34.75;35.24;99493.97;1704383;82;21041;-60
2023/06/16 10:10:51;;;;;;;5.70;2.47;;;;;;;34.71;34.32;99490.09;1668107;84;21850;-59
2023/06/16 10:13:20;;;;;;;5.78;2.75;;;;;;;35.05;34.86;99495.73;1685368;83;20996;-60
2023/06/16 10:15:50;;;;;;;3.30;2.00;;;;;;;35.66;35.07;99488.91;1683421;83;21054;-60
2023/06/16 10:18:27;;;;;;;2.05;1.82;;;;;;;36.98;34.68;99475.05;1689416;83;21114;-61
2023/06/16 10:20:56;;;;;;;4.37;2.62;;;;;;;38.48;35.35;99478.08;1690994;83;21087;-60
2023/06/16 10:23:23;;;;;;;5.42;2.00;;;;;;;40.10;32.93;99479.56;1689011;83;21051;-61
2023/06/16 10:25:50;;;;;;;3.77;1.92;;;;;;;40.82;32.86;99480.92;1688499;83;21130;-60
2023/06/16 10:28:19;;;;;;;2.98;1.87;;;;;;;42.03;33.13;99477.34;1691787;83;21013;-61
2023/06/16 10:30:50;;;;;;;4.97;2.00;;;;;;;43.46;32.66;99476.97;1688743;83;21037;-61
2023/06/16 10:33:19;;;;;;;3.02;2.27;;;;;;;44.16;32.16;99477.03;1689398;83;21059;-61
2023/06/16 10:35:55;;;;;;;4.20;2.02;;;;;;;43.09;28.98;99474.41;1684402;83;21004;-61
2023/06/16 10:38:34;;;;;;;3.52;2.10;;;;;;;40.86;28.82;99476.52;1741233;81;21016;-60
2023/06/16 10:41:06;;;;;;;2.20;1.85;;;;;;;38.31;28.50;99477.89;1737106;81;22220;-60
2023/06/16 10:43:32;;;;;;;5.53;2.17;;;;;;;37.25;29.82;99473.27;1746184;81;21384;-59
2023/06/16 10:46:18;;;;;;;4.95;2.30;;;;;;;38.31;28.08;99477.35;1673439;84;21066;-59
2023/06/16 10:49:10;;;;;;;7.20;2.10;;;;;;;37.88;26.90;99479.14;1734355;82;21022;-60
2023/06/16 10:51:48;;;;;;;3.72;2.65;;;;;;;37.88;26.90;99479.14;1730419;82;21034;-60
2023/06/16 10:54:37;;;;;;;2.47;1.77;;;;;;;38.23;28.35;99477.83;1733736;81;21050;-60
2023/06/16 10:57:07;;;;;;;3.62;2.50;;;;;;;40.14;28.42;99472.99;1669201;84;21101;-60
2023/06/16 10:59:55;;;;;;;4.33;2.08;;;;;;;41.58;26.84;99473.78;1733342;82;21001;-60
2023/06/16 11:02:27;;;;;;;5.90;2.15;;;;;;;40.14;26.25;99468.37;1730676;82;21403;-62
2023/06/16 11:05:13;;;;;;;3.45;2.00;;;;;;;39.08;25.94;99471.08;1731130;82;21050;-60
2023/06/16 11:07:48;;;;;;;10.23;2.35;;;;;;;38.45;26.07;99478.58;1710677;82;21085;-60
2023/06/16 11:10:20;;;;;;;2.42;2.22;;;;;;;37.84;25.86;99465.77;1730498;82;20999;-60
2023/06/16 11:12:47;;;;;;;11.80;2.92;;;;;;;36.27;25.50;99465.56;1726982;82;20979;-60
2023/06/16 11:15:14;;;;;;;4.10;2.17;;;;;;;34.89;26.55;99470.97;1728836;82;21407;-60
2023/06/16 11:17:47;;;;;;;3.65;2.40;;;;;;;35.63;26.96;99464.95;1735218;82;20939;-61
2023/06/16 11:20:14;;;;;;;2.98;2.17;;;;;;;37.04;27.01;99458.56;1734079;82;21038;-61
2023/06/16 11:22:46;;;;;;;4.70;2.72;;;;;;;37.54;26.32;99456.19;1718723;82;20999;-61
2023/06/16 11:25:10;;;;;;;3.75;2.02;;;;;;;36.74;25.78;99452.95;1731329;82;21077;-61
2023/06/16 11:27:36;;;;;;;;;;;;;;;35.52;26.48;99453.58;1735053;82;21069;-61
2023/06/16 11:30:06;;;;;;;3.42;2.27;;;;;;;35.70;26.18;99458.82;1734183;81;20170;-61
2023/06/16 11:32:34;;;;;;;4.25;2.47;;;;;;;36.17;26.24;99457.77;1703602;83;21141;-61